sensor_id;sensor_type;location;lat;lon;timestamp;P1;durP1;ratioP1;P2;durP2;ratioP2
76548;SDS011;65391;52.068;4.542;2023-02-28T00:00:13;6;;;2.4;;
76548;SDS011;65391;52.068;4.542;2023-02-28T00:02:39;6;;;2.4;;
76548;SDS011;65391;52.068;4.542;2023-02-28T00:05:04;6;;;2.4;;
76548;SDS011;65391;52.068;4.542;2023-02-28T00:07:28;6;;;2.4;;
76548;SDS011;65391;52.068;4.542;2023-02-28T00:09:53;3.9;;;1.9;;
76548;SDS011;65391;52.068;4.542;2023-02-28T00:12:18;3.9;;;1.9;;
76548;SDS011;65391;52.068;4.542;2023-02-28T00:14:43;3.9;;;1.9;;
76548;SDS011;65391;52.068;4.542;2023-02-28T00:17:08;3.9;;;1.9;;
76548;SDS011;65391;52.068;4.542;2023-02-28T00:19:33;9.8;;;2.5;;
76548;SDS011;65391;52.068;4.542;2023-02-28T00:21:58;9.8;;;2.5;;
76548;SDS011;65391;52.068;4.542;2023-02-28T00:24:23;9.8;;;2.5;;
76548;SDS011;65391;52.068;4.542;2023-02-28T00:26:48;9.8;;;2.5;;
76548;SDS011;65391;52.068;4.542;2023-02-28T00:29:13;8.1;;;3;;
76548;SDS011;65391;52.068;4.542;2023-02-28T00:31:38;8.1;;;3;;
76548;SDS011;65391;52.068;4.542;2023-02-28T00:34:03;8.1;;;3;;
76548;SDS011;65391;52.068;4.542;2023-02-28T00:36:28;8.1;;;3;;
76548;SDS011;65391;52.068;4.542;2023-02-28T00:38:53;8.1;;;3;;
76548;SDS011;65391;52.068;4.542;2023-02-28T00:41:18;8.7;;;2.9;;
76548;SDS011;65391;52.068;4.542;2023-02-28T00:43:43;8.7;;;2.9;;
76548;SDS011;65391;52.068;4.542;2023-02-28T00:46:08;8.7;;;2.9;;
76548;SDS011;65391;52.068;4.542;2023-02-28T00:48:34;8.7;;;2.9;;
76548;SDS011;65391;52.068;4.542;2023-02-28T00:50:58;7.4;;;1.9;;
76548;SDS011;65391;52.068;4.542;2023-02-28T00:53:23;7.4;;;1.9;;
76548;SDS011;65391;52.068;4.542;2023-02-28T00:55:49;7.4;;;1.9;;
76548;SDS011;65391;52.068;4.542;2023-02-28T00:58:13;7.4;;;1.9;;
76548;SDS011;65391;52.068;4.542;2023-02-28T01:00:38;8.1;;;2.8;;
76548;SDS011;65391;52.068;4.542;2023-02-28T01:03:03;8.1;;;2.8;;
76548;SDS011;65391;52.068;4.542;2023-02-28T01:05:28;8.1;;;2.8;;
76548;SDS011;65391;52.068;4.542;2023-02-28T01:07:53;8.1;;;2.8;;
76548;SDS011;65391;52.068;4.542;2023-02-28T01:10:18;11.6;;;2.4;;
76548;SDS011;65391;52.068;4.542;2023-02-28T01:12:43;11.6;;;2.4;;
76548;SDS011;65391;52.068;4.542;2023-02-28T01:15:10;11.6;;;2.4;;
76548;SDS011;65391;52.068;4.542;2023-02-28T01:17:33;11.6;;;2.4;;
76548;SDS011;65391;52.068;4.542;2023-02-28T01:19:58;6.5;;;2.2;;
76548;SDS011;65391;52.068;4.542;2023-02-28T01:22:23;6.5;;;2.2;;
76548;SDS011;65391;52.068;4.542;2023-02-28T01:24:48;6.5;;;2.2;;
76548;SDS011;65391;52.068;4.542;2023-02-28T01:27:13;6.5;;;2.2;;
76548;SDS011;65391;52.068;4.542;2023-02-28T01:29:38;6.8;;;2.8;;
76548;SDS011;65391;52.068;4.542;2023-02-28T01:32:03;6.8;;;2.8;;
76548;SDS011;65391;52.068;4.542;2023-02-28T01:34:28;6.8;;;2.8;;
76548;SDS011;65391;52.068;4.542;2023-02-28T01:36:53;6.8;;;2.8;;
76548;SDS011;65391;52.068;4.542;2023-02-28T01:39:18;10.3;;;2.9;;
76548;SDS011;65391;52.068;4.542;2023-02-28T01:41:43;10.3;;;2.9;;
76548;SDS011;65391;52.068;4.542;2023-02-28T01:44:55;10.3;;;2.9;;
76548;SDS011;65391;52.068;4.542;2023-02-28T01:46:34;10.3;;;2.9;;
76548;SDS011;65391;52.068;4.542;2023-02-28T01:49:01;10.3;;;2.9;;
76548;SDS011;65391;52.068;4.542;2023-02-28T01:51:26;6.7;;;2.8;;
76548;SDS011;65391;52.068;4.542;2023-02-28T01:53:50;6.7;;;2.8;;
76548;SDS011;65391;52.068;4.542;2023-02-28T01:56:13;6.7;;;2.8;;
76548;SDS011;65391;52.068;4.542;2023-02-28T01:58:38;6.7;;;2.8;;
76548;SDS011;65391;52.068;4.542;2023-02-28T02:01:03;7.6;;;2.8;;
76548;SDS011;65391;52.068;4.542;2023-02-28T02:03:28;7.6;;;2.8;;
76548;SDS011;65391;52.068;4.542;2023-02-28T02:05:53;7.6;;;2.8;;
76548;SDS011;65391;52.068;4.542;2023-02-28T02:08:20;7.6;;;2.8;;
76548;SDS011;65391;52.068;4.542;2023-02-28T02:10:44;9.5;;;3;;
76548;SDS011;65391;52.068;4.542;2023-02-28T02:13:14;9.5;;;3;;
76548;SDS011;65391;52.068;4.542;2023-02-28T02:15:34;9.5;;;3;;
76548;SDS011;65391;52.068;4.542;2023-02-28T02:18:01;9.5;;;3;;
76548;SDS011;65391;52.068;4.542;2023-02-28T02:21:09;9.4;;;3.5;;
76548;SDS011;65391;52.068;4.542;2023-02-28T02:23:27;9.4;;;3.5;;
76548;SDS011;65391;52.068;4.542;2023-02-28T02:25:19;9.4;;;3.5;;
76548;SDS011;65391;52.068;4.542;2023-02-28T02:27:46;9.4;;;3.5;;
76548;SDS011;65391;52.068;4.542;2023-02-28T02:30:27;6.6;;;2.7;;
76548;SDS011;65391;52.068;4.542;2023-02-28T02:32:36;6.6;;;2.7;;
76548;SDS011;65391;52.068;4.542;2023-02-28T02:34:58;6.6;;;2.7;;
76548;SDS011;65391;52.068;4.542;2023-02-28T02:37:25;6.6;;;2.7;;
76548;SDS011;65391;52.068;4.542;2023-02-28T02:39:47;7.9;;;3;;
76548;SDS011;65391;52.068;4.542;2023-02-28T02:42:12;7.9;;;3;;
76548;SDS011;65391;52.068;4.542;2023-02-28T02:44:36;7.9;;;3;;
76548;SDS011;65391;52.068;4.542;2023-02-28T02:47:00;7.9;;;3;;
76548;SDS011;65391;52.068;4.542;2023-02-28T02:49:25;8.3;;;3.5;;
76548;SDS011;65391;52.068;4.542;2023-02-28T02:51:48;8.3;;;3.5;;
76548;SDS011;65391;52.068;4.542;2023-02-28T02:54:15;8.3;;;3.5;;
76548;SDS011;65391;52.068;4.542;2023-02-28T02:56:39;8.3;;;3.5;;
76548;SDS011;65391;52.068;4.542;2023-02-28T02:59:04;8.3;;;3.5;;
76548;SDS011;65391;52.068;4.542;2023-02-28T03:01:28;7.2;;;3.1;;
76548;SDS011;65391;52.068;4.542;2023-02-28T03:03:56;7.2;;;3.1;;
76548;SDS011;65391;52.068;4.542;2023-02-28T03:06:18;7.2;;;3.1;;
76548;SDS011;65391;52.068;4.542;2023-02-28T03:08:43;7.2;;;3.1;;
76548;SDS011;65391;52.068;4.542;2023-02-28T03:11:11;8.9;;;3.6;;
76548;SDS011;65391;52.068;4.542;2023-02-28T03:13:42;8.9;;;3.6;;
76548;SDS011;65391;52.068;4.542;2023-02-28T03:16:07;8.9;;;3.6;;
76548;SDS011;65391;52.068;4.542;2023-02-28T03:18:25;8.9;;;3.6;;
76548;SDS011;65391;52.068;4.542;2023-02-28T03:20:50;11.9;;;3.6;;
76548;SDS011;65391;52.068;4.542;2023-02-28T03:23:16;11.9;;;3.6;;
76548;SDS011;65391;52.068;4.542;2023-02-28T03:25:45;11.9;;;3.6;;
76548;SDS011;65391;52.068;4.542;2023-02-28T03:28:08;11.9;;;3.6;;
76548;SDS011;65391;52.068;4.542;2023-02-28T03:30:31;5.3;;;3.2;;
76548;SDS011;65391;52.068;4.542;2023-02-28T03:32:55;5.3;;;3.2;;
76548;SDS011;65391;52.068;4.542;2023-02-28T03:35:20;5.3;;;3.2;;
76548;SDS011;65391;52.068;4.542;2023-02-28T03:37:43;5.3;;;3.2;;
76548;SDS011;65391;52.068;4.542;2023-02-28T03:40:10;9.6;;;3.6;;
76548;SDS011;65391;52.068;4.542;2023-02-28T03:42:34;9.6;;;3.6;;
76548;SDS011;65391;52.068;4.542;2023-02-28T03:44:59;9.6;;;3.6;;
76548;SDS011;65391;52.068;4.542;2023-02-28T03:47:24;9.6;;;3.6;;
76548;SDS011;65391;52.068;4.542;2023-02-28T03:49:49;9.9;;;3.6;;
76548;SDS011;65391;52.068;4.542;2023-02-28T03:52:15;9.9;;;3.6;;
76548;SDS011;65391;52.068;4.542;2023-02-28T03:54:42;9.9;;;3.6;;
76548;SDS011;65391;52.068;4.542;2023-02-28T03:57:05;9.9;;;3.6;;
76548;SDS011;65391;52.068;4.542;2023-02-28T03:59:30;8.4;;;4.5;;
76548;SDS011;65391;52.068;4.542;2023-02-28T04:01:53;8.4;;;4.5;;
76548;SDS011;65391;52.068;4.542;2023-02-28T04:04:18;8.4;;;4.5;;
76548;SDS011;65391;52.068;4.542;2023-02-28T04:06:44;8.4;;;4.5;;
76548;SDS011;65391;52.068;4.542;2023-02-28T04:09:10;8.4;;;4.5;;
76548;SDS011;65391;52.068;4.542;2023-02-28T04:11:35;7.2;;;3.8;;
76548;SDS011;65391;52.068;4.542;2023-02-28T04:13:59;7.2;;;3.8;;
76548;SDS011;65391;52.068;4.542;2023-02-28T04:16:23;7.2;;;3.8;;
76548;SDS011;65391;52.068;4.542;2023-02-28T04:18:48;7.2;;;3.8;;
76548;SDS011;65391;52.068;4.542;2023-02-28T04:21:13;11.8;;;4.7;;
76548;SDS011;65391;52.068;4.542;2023-02-28T04:23:38;11.8;;;4.7;;
76548;SDS011;65391;52.068;4.542;2023-02-28T04:26:04;11.8;;;4.7;;
76548;SDS011;65391;52.068;4.542;2023-02-28T04:28:28;11.8;;;4.7;;
76548;SDS011;65391;52.068;4.542;2023-02-28T04:30:55;8.4;;;4.2;;
76548;SDS011;65391;52.068;4.542;2023-02-28T04:33:18;8.4;;;4.2;;
76548;SDS011;65391;52.068;4.542;2023-02-28T04:35:43;8.4;;;4.2;;
76548;SDS011;65391;52.068;4.542;2023-02-28T04:38:08;8.4;;;4.2;;
76548;SDS011;65391;52.068;4.542;2023-02-28T04:40:33;8.5;;;4.3;;
76548;SDS011;65391;52.068;4.542;2023-02-28T04:42:58;8.5;;;4.3;;
76548;SDS011;65391;52.068;4.542;2023-02-28T04:45:23;8.5;;;4.3;;
76548;SDS011;65391;52.068;4.542;2023-02-28T04:47:48;8.5;;;4.3;;
76548;SDS011;65391;52.068;4.542;2023-02-28T04:50:14;12.1;;;4.1;;
76548;SDS011;65391;52.068;4.542;2023-02-28T04:52:38;12.1;;;4.1;;
76548;SDS011;65391;52.068;4.542;2023-02-28T04:55:04;12.1;;;4.1;;
76548;SDS011;65391;52.068;4.542;2023-02-28T04:57:28;12.1;;;4.1;;
76548;SDS011;65391;52.068;4.542;2023-02-28T04:59:53;9.3;;;4.6;;
76548;SDS011;65391;52.068;4.542;2023-02-28T05:02:18;9.3;;;4.6;;
76548;SDS011;65391;52.068;4.542;2023-02-28T05:04:43;9.3;;;4.6;;
76548;SDS011;65391;52.068;4.542;2023-02-28T05:07:09;9.3;;;4.6;;
76548;SDS011;65391;52.068;4.542;2023-02-28T05:09:33;14.8;;;4.5;;
76548;SDS011;65391;52.068;4.542;2023-02-28T05:11:58;14.8;;;4.5;;
76548;SDS011;65391;52.068;4.542;2023-02-28T05:14:23;14.8;;;4.5;;
76548;SDS011;65391;52.068;4.542;2023-02-28T05:16:48;14.8;;;4.5;;
76548;SDS011;65391;52.068;4.542;2023-02-28T05:19:14;14.8;;;4.5;;
76548;SDS011;65391;52.068;4.542;2023-02-28T05:21:40;8.7;;;4.3;;
76548;SDS011;65391;52.068;4.542;2023-02-28T05:24:05;8.7;;;4.3;;
76548;SDS011;65391;52.068;4.542;2023-02-28T05:26:29;8.7;;;4.3;;
76548;SDS011;65391;52.068;4.542;2023-02-28T05:28:53;8.7;;;4.3;;
76548;SDS011;65391;52.068;4.542;2023-02-28T05:31:18;8.1;;;4.4;;
76548;SDS011;65391;52.068;4.542;2023-02-28T05:33:43;8.1;;;4.4;;
76548;SDS011;65391;52.068;4.542;2023-02-28T05:36:08;8.1;;;4.4;;
76548;SDS011;65391;52.068;4.542;2023-02-28T05:38:33;8.1;;;4.4;;
76548;SDS011;65391;52.068;4.542;2023-02-28T05:40:58;6.9;;;4;;
76548;SDS011;65391;52.068;4.542;2023-02-28T05:43:23;6.9;;;4;;
76548;SDS011;65391;52.068;4.542;2023-02-28T05:45:48;6.9;;;4;;
76548;SDS011;65391;52.068;4.542;2023-02-28T05:48:13;6.9;;;4;;
76548;SDS011;65391;52.068;4.542;2023-02-28T05:50:38;11.5;;;4.9;;
76548;SDS011;65391;52.068;4.542;2023-02-28T05:53:03;11.5;;;4.9;;
76548;SDS011;65391;52.068;4.542;2023-02-28T05:55:29;11.5;;;4.9;;
76548;SDS011;65391;52.068;4.542;2023-02-28T05:57:53;11.5;;;4.9;;
76548;SDS011;65391;52.068;4.542;2023-02-28T06:00:19;6.7;;;4.2;;
76548;SDS011;65391;52.068;4.542;2023-02-28T06:02:43;6.7;;;4.2;;
76548;SDS011;65391;52.068;4.542;2023-02-28T06:05:10;6.7;;;4.2;;
76548;SDS011;65391;52.068;4.542;2023-02-28T06:07:33;6.7;;;4.2;;
76548;SDS011;65391;52.068;4.542;2023-02-28T06:09:58;9.3;;;4.5;;
76548;SDS011;65391;52.068;4.542;2023-02-28T06:12:24;9.3;;;4.5;;
76548;SDS011;65391;52.068;4.542;2023-02-28T06:14:48;9.3;;;4.5;;
76548;SDS011;65391;52.068;4.542;2023-02-28T06:17:13;9.3;;;4.5;;
76548;SDS011;65391;52.068;4.542;2023-02-28T06:19:38;10.3;;;5.3;;
76548;SDS011;65391;52.068;4.542;2023-02-28T06:22:03;10.3;;;5.3;;
76548;SDS011;65391;52.068;4.542;2023-02-28T06:24:28;10.3;;;5.3;;
76548;SDS011;65391;52.068;4.542;2023-02-28T06:26:53;10.3;;;5.3;;
76548;SDS011;65391;52.068;4.542;2023-02-28T06:29:19;10.3;;;5.3;;
76548;SDS011;65391;52.068;4.542;2023-02-28T06:31:44;12.2;;;5.3;;
76548;SDS011;65391;52.068;4.542;2023-02-28T06:34:08;12.2;;;5.3;;
76548;SDS011;65391;52.068;4.542;2023-02-28T06:36:33;12.2;;;5.3;;
76548;SDS011;65391;52.068;4.542;2023-02-28T06:38:58;12.2;;;5.3;;
76548;SDS011;65391;52.068;4.542;2023-02-28T06:41:24;10.1;;;5.2;;
76548;SDS011;65391;52.068;4.542;2023-02-28T06:43:48;10.1;;;5.2;;
76548;SDS011;65391;52.068;4.542;2023-02-28T06:46:13;10.1;;;5.2;;
76548;SDS011;65391;52.068;4.542;2023-02-28T06:48:39;10.1;;;5.2;;
76548;SDS011;65391;52.068;4.542;2023-02-28T06:51:05;8.2;;;4.6;;
76548;SDS011;65391;52.068;4.542;2023-02-28T06:53:28;8.2;;;4.6;;
76548;SDS011;65391;52.068;4.542;2023-02-28T06:55:53;8.2;;;4.6;;
76548;SDS011;65391;52.068;4.542;2023-02-28T06:58:18;8.2;;;4.6;;
76548;SDS011;65391;52.068;4.542;2023-02-28T07:00:44;6;;;3.4;;
76548;SDS011;65391;52.068;4.542;2023-02-28T07:03:09;6;;;3.4;;
76548;SDS011;65391;52.068;4.542;2023-02-28T07:05:34;6;;;3.4;;
76548;SDS011;65391;52.068;4.542;2023-02-28T07:07:58;6;;;3.4;;
76548;SDS011;65391;52.068;4.542;2023-02-28T07:10:23;6.1;;;3.5;;
76548;SDS011;65391;52.068;4.542;2023-02-28T07:12:49;6.1;;;3.5;;
76548;SDS011;65391;52.068;4.542;2023-02-28T07:15:13;6.1;;;3.5;;
76548;SDS011;65391;52.068;4.542;2023-02-28T07:17:38;6.1;;;3.5;;
76548;SDS011;65391;52.068;4.542;2023-02-28T07:20:04;6.5;;;2.8;;
76548;SDS011;65391;52.068;4.542;2023-02-28T07:22:29;6.5;;;2.8;;
76548;SDS011;65391;52.068;4.542;2023-02-28T07:24:53;6.5;;;2.8;;
76548;SDS011;65391;52.068;4.542;2023-02-28T07:27:18;6.5;;;2.8;;
76548;SDS011;65391;52.068;4.542;2023-02-28T07:29:44;4.7;;;2.7;;
76548;SDS011;65391;52.068;4.542;2023-02-28T07:32:08;4.7;;;2.7;;
76548;SDS011;65391;52.068;4.542;2023-02-28T07:34:34;4.7;;;2.7;;
76548;SDS011;65391;52.068;4.542;2023-02-28T07:36:58;4.7;;;2.7;;
76548;SDS011;65391;52.068;4.542;2023-02-28T07:39:24;4.7;;;2.7;;
76548;SDS011;65391;52.068;4.542;2023-02-28T07:41:49;9.4;;;3.1;;
76548;SDS011;65391;52.068;4.542;2023-02-28T07:44:14;9.4;;;3.1;;
76548;SDS011;65391;52.068;4.542;2023-02-28T07:46:39;9.4;;;3.1;;
76548;SDS011;65391;52.068;4.542;2023-02-28T07:49:04;9.4;;;3.1;;
76548;SDS011;65391;52.068;4.542;2023-02-28T07:51:29;8.5;;;3.4;;
76548;SDS011;65391;52.068;4.542;2023-02-28T07:53:54;8.5;;;3.4;;
76548;SDS011;65391;52.068;4.542;2023-02-28T07:56:19;8.5;;;3.4;;
76548;SDS011;65391;52.068;4.542;2023-02-28T07:58:44;8.5;;;3.4;;
76548;SDS011;65391;52.068;4.542;2023-02-28T08:01:10;8.1;;;3.6;;
76548;SDS011;65391;52.068;4.542;2023-02-28T08:03:34;8.1;;;3.6;;
76548;SDS011;65391;52.068;4.542;2023-02-28T08:05:59;8.1;;;3.6;;
76548;SDS011;65391;52.068;4.542;2023-02-28T08:08:24;8.1;;;3.6;;
76548;SDS011;65391;52.068;4.542;2023-02-28T08:10:49;7;;;3.4;;
76548;SDS011;65391;52.068;4.542;2023-02-28T08:13:14;7;;;3.4;;
76548;SDS011;65391;52.068;4.542;2023-02-28T08:15:40;7;;;3.4;;
76548;SDS011;65391;52.068;4.542;2023-02-28T08:18:04;7;;;3.4;;
76548;SDS011;65391;52.068;4.542;2023-02-28T08:20:29;6.2;;;3.3;;
76548;SDS011;65391;52.068;4.542;2023-02-28T08:22:54;6.2;;;3.3;;
76548;SDS011;65391;52.068;4.542;2023-02-28T08:25:19;6.2;;;3.3;;
76548;SDS011;65391;52.068;4.542;2023-02-28T08:27:44;6.2;;;3.3;;
76548;SDS011;65391;52.068;4.542;2023-02-28T08:30:10;7.5;;;3.8;;
76548;SDS011;65391;52.068;4.542;2023-02-28T08:32:34;7.5;;;3.8;;
76548;SDS011;65391;52.068;4.542;2023-02-28T08:34:59;7.5;;;3.8;;
76548;SDS011;65391;52.068;4.542;2023-02-28T08:37:24;7.5;;;3.8;;
76548;SDS011;65391;52.068;4.542;2023-02-28T08:39:49;7.5;;;3.8;;
76548;SDS011;65391;52.068;4.542;2023-02-28T08:42:14;7.2;;;3.7;;
76548;SDS011;65391;52.068;4.542;2023-02-28T08:44:39;7.2;;;3.7;;
76548;SDS011;65391;52.068;4.542;2023-02-28T08:47:04;7.2;;;3.7;;
76548;SDS011;65391;52.068;4.542;2023-02-28T08:49:29;7.2;;;3.7;;
76548;SDS011;65391;52.068;4.542;2023-02-28T08:51:54;6.5;;;4.1;;
76548;SDS011;65391;52.068;4.542;2023-02-28T08:54:19;6.5;;;4.1;;
76548;SDS011;65391;52.068;4.542;2023-02-28T08:56:44;6.5;;;4.1;;
76548;SDS011;65391;52.068;4.542;2023-02-28T08:59:09;6.5;;;4.1;;
76548;SDS011;65391;52.068;4.542;2023-02-28T09:01:34;7.5;;;3.6;;
76548;SDS011;65391;52.068;4.542;2023-02-28T09:03:59;7.5;;;3.6;;
76548;SDS011;65391;52.068;4.542;2023-02-28T09:06:25;7.5;;;3.6;;
76548;SDS011;65391;52.068;4.542;2023-02-28T09:08:49;7.5;;;3.6;;
76548;SDS011;65391;52.068;4.542;2023-02-28T09:11:14;7.2;;;4.1;;
76548;SDS011;65391;52.068;4.542;2023-02-28T09:13:39;7.2;;;4.1;;
76548;SDS011;65391;52.068;4.542;2023-02-28T09:16:05;7.2;;;4.1;;
76548;SDS011;65391;52.068;4.542;2023-02-28T09:18:29;7.2;;;4.1;;
76548;SDS011;65391;52.068;4.542;2023-02-28T09:20:54;8.4;;;4.2;;
76548;SDS011;65391;52.068;4.542;2023-02-28T09:23:19;8.4;;;4.2;;
76548;SDS011;65391;52.068;4.542;2023-02-28T09:25:45;8.4;;;4.2;;
76548;SDS011;65391;52.068;4.542;2023-02-28T09:28:09;8.4;;;4.2;;
76548;SDS011;65391;52.068;4.542;2023-02-28T09:30:34;8.7;;;4.9;;
76548;SDS011;65391;52.068;4.542;2023-02-28T09:32:59;8.7;;;4.9;;
76548;SDS011;65391;52.068;4.542;2023-02-28T09:35:24;8.7;;;4.9;;
76548;SDS011;65391;52.068;4.542;2023-02-28T09:37:49;8.7;;;4.9;;
76548;SDS011;65391;52.068;4.542;2023-02-28T09:40:14;10.6;;;5.1;;
76548;SDS011;65391;52.068;4.542;2023-02-28T09:42:39;10.6;;;5.1;;
76548;SDS011;65391;52.068;4.542;2023-02-28T09:45:06;10.6;;;5.1;;
76548;SDS011;65391;52.068;4.542;2023-02-28T09:47:30;10.6;;;5.1;;
76548;SDS011;65391;52.068;4.542;2023-02-28T09:49:54;10.6;;;5.1;;
76548;SDS011;65391;52.068;4.542;2023-02-28T09:52:20;6.6;;;3.9;;
76548;SDS011;65391;52.068;4.542;2023-02-28T09:54:44;6.6;;;3.9;;
76548;SDS011;65391;52.068;4.542;2023-02-28T09:57:14;6.6;;;3.9;;
76548;SDS011;65391;52.068;4.542;2023-02-28T09:59:40;6.6;;;3.9;;
76548;SDS011;65391;52.068;4.542;2023-02-28T10:02:03;7.9;;;3.6;;
76548;SDS011;65391;52.068;4.542;2023-02-28T10:04:35;7.9;;;3.6;;
76548;SDS011;65391;52.068;4.542;2023-02-28T10:06:49;7.9;;;3.6;;
76548;SDS011;65391;52.068;4.542;2023-02-28T10:09:16;7.9;;;3.6;;
76548;SDS011;65391;52.068;4.542;2023-02-28T10:11:39;7.4;;;3;;
76548;SDS011;65391;52.068;4.542;2023-02-28T10:14:05;7.4;;;3;;
76548;SDS011;65391;52.068;4.542;2023-02-28T10:16:31;7.4;;;3;;
76548;SDS011;65391;52.068;4.542;2023-02-28T10:18:56;7.4;;;3;;
76548;SDS011;65391;52.068;4.542;2023-02-28T10:21:20;6.3;;;3.9;;
76548;SDS011;65391;52.068;4.542;2023-02-28T10:23:44;6.3;;;3.9;;
76548;SDS011;65391;52.068;4.542;2023-02-28T10:26:12;6.3;;;3.9;;
76548;SDS011;65391;52.068;4.542;2023-02-28T10:28:34;6.3;;;3.9;;
76548;SDS011;65391;52.068;4.542;2023-02-28T10:30:59;7;;;3.6;;
76548;SDS011;65391;52.068;4.542;2023-02-28T10:33:25;7;;;3.6;;
76548;SDS011;65391;52.068;4.542;2023-02-28T10:35:49;7;;;3.6;;
76548;SDS011;65391;52.068;4.542;2023-02-28T10:38:16;7;;;3.6;;
76548;SDS011;65391;52.068;4.542;2023-02-28T10:40:39;4.6;;;3.4;;
76548;SDS011;65391;52.068;4.542;2023-02-28T10:43:05;4.6;;;3.4;;
76548;SDS011;65391;52.068;4.542;2023-02-28T10:45:29;4.6;;;3.4;;
76548;SDS011;65391;52.068;4.542;2023-02-28T10:47:55;4.6;;;3.4;;
76548;SDS011;65391;52.068;4.542;2023-02-28T10:50:28;5.3;;;3.7;;
76548;SDS011;65391;52.068;4.542;2023-02-28T10:52:44;5.3;;;3.7;;
76548;SDS011;65391;52.068;4.542;2023-02-28T10:55:14;5.3;;;3.7;;
76548;SDS011;65391;52.068;4.542;2023-02-28T10:57:34;5.3;;;3.7;;
76548;SDS011;65391;52.068;4.542;2023-02-28T11:00:08;5.3;;;3.7;;
76548;SDS011;65391;52.068;4.542;2023-02-28T11:02:30;5.1;;;3.5;;
76548;SDS011;65391;52.068;4.542;2023-02-28T11:04:49;5.1;;;3.5;;
76548;SDS011;65391;52.068;4.542;2023-02-28T11:07:17;5.1;;;3.5;;
76548;SDS011;65391;52.068;4.542;2023-02-28T11:09:39;5.1;;;3.5;;
76548;SDS011;65391;52.068;4.542;2023-02-28T11:12:05;5.1;;;3;;
76548;SDS011;65391;52.068;4.542;2023-02-28T11:14:30;5.1;;;3;;
76548;SDS011;65391;52.068;4.542;2023-02-28T11:16:54;5.1;;;3;;
76548;SDS011;65391;52.068;4.542;2023-02-28T11:19:20;5.1;;;3;;
76548;SDS011;65391;52.068;4.542;2023-02-28T11:21:48;6.7;;;2.7;;
76548;SDS011;65391;52.068;4.542;2023-02-28T11:24:15;6.7;;;2.7;;
76548;SDS011;65391;52.068;4.542;2023-02-28T11:26:37;6.7;;;2.7;;
76548;SDS011;65391;52.068;4.542;2023-02-28T11:29:03;6.7;;;2.7;;
76548;SDS011;65391;52.068;4.542;2023-02-28T11:31:24;5.6;;;3.2;;
76548;SDS011;65391;52.068;4.542;2023-02-28T11:33:49;5.6;;;3.2;;
76548;SDS011;65391;52.068;4.542;2023-02-28T11:36:16;5.6;;;3.2;;
76548;SDS011;65391;52.068;4.542;2023-02-28T11:38:39;5.6;;;3.2;;
76548;SDS011;65391;52.068;4.542;2023-02-28T11:41:13;3.9;;;2.2;;
76548;SDS011;65391;52.068;4.542;2023-02-28T11:43:34;3.9;;;2.2;;
76548;SDS011;65391;52.068;4.542;2023-02-28T11:46:02;3.9;;;2.2;;
76548;SDS011;65391;52.068;4.542;2023-02-28T11:48:20;3.9;;;2.2;;
76548;SDS011;65391;52.068;4.542;2023-02-28T11:50:48;5.2;;;2.5;;
76548;SDS011;65391;52.068;4.542;2023-02-28T11:53:14;5.2;;;2.5;;
76548;SDS011;65391;52.068;4.542;2023-02-28T11:55:35;5.2;;;2.5;;
76548;SDS011;65391;52.068;4.542;2023-02-28T11:58:21;5.2;;;2.5;;
76548;SDS011;65391;52.068;4.542;2023-02-28T12:00:32;3.8;;;2.6;;
76548;SDS011;65391;52.068;4.542;2023-02-28T12:02:57;3.8;;;2.6;;
76548;SDS011;65391;52.068;4.542;2023-02-28T12:05:21;3.8;;;2.6;;
76548;SDS011;65391;52.068;4.542;2023-02-28T12:07:46;3.8;;;2.6;;
76548;SDS011;65391;52.068;4.542;2023-02-28T12:10:09;3.8;;;2.6;;
76548;SDS011;65391;52.068;4.542;2023-02-28T12:12:37;3.4;;;2;;
76548;SDS011;65391;52.068;4.542;2023-02-28T12:15:02;3.4;;;2;;
76548;SDS011;65391;52.068;4.542;2023-02-28T12:17:24;3.4;;;2;;
76548;SDS011;65391;52.068;4.542;2023-02-28T12:19:46;3.4;;;2;;
76548;SDS011;65391;52.068;4.542;2023-02-28T12:22:21;3.5;;;1.9;;
76548;SDS011;65391;52.068;4.542;2023-02-28T12:24:43;3.5;;;1.9;;
76548;SDS011;65391;52.068;4.542;2023-02-28T12:27:00;3.5;;;1.9;;
76548;SDS011;65391;52.068;4.542;2023-02-28T12:29:25;3.5;;;1.9;;
76548;SDS011;65391;52.068;4.542;2023-02-28T12:31:50;2.6;;;1.9;;
76548;SDS011;65391;52.068;4.542;2023-02-28T12:34:16;2.6;;;1.9;;
76548;SDS011;65391;52.068;4.542;2023-02-28T12:36:39;2.6;;;1.9;;
76548;SDS011;65391;52.068;4.542;2023-02-28T12:39:06;2.6;;;1.9;;
76548;SDS011;65391;52.068;4.542;2023-02-28T12:41:33;4.6;;;2.4;;
76548;SDS011;65391;52.068;4.542;2023-02-28T12:43:57;4.6;;;2.4;;
76548;SDS011;65391;52.068;4.542;2023-02-28T12:46:21;4.6;;;2.4;;
76548;SDS011;65391;52.068;4.542;2023-02-28T12:48:46;4.6;;;2.4;;
76548;SDS011;65391;52.068;4.542;2023-02-28T12:51:09;4.9;;;2.3;;
76548;SDS011;65391;52.068;4.542;2023-02-28T12:53:38;4.9;;;2.3;;
76548;SDS011;65391;52.068;4.542;2023-02-28T12:56:07;4.9;;;2.3;;
76548;SDS011;65391;52.068;4.542;2023-02-28T12:58:27;4.9;;;2.3;;
76548;SDS011;65391;52.068;4.542;2023-02-28T13:01:03;4.1;;;2.3;;
76548;SDS011;65391;52.068;4.542;2023-02-28T13:03:24;4.1;;;2.3;;
76548;SDS011;65391;52.068;4.542;2023-02-28T13:05:49;4.1;;;2.3;;
76548;SDS011;65391;52.068;4.542;2023-02-28T13:08:18;4.1;;;2.3;;
76548;SDS011;65391;52.068;4.542;2023-02-28T13:10:38;3;;;2.3;;
76548;SDS011;65391;52.068;4.542;2023-02-28T13:12:54;3;;;2.3;;
76548;SDS011;65391;52.068;4.542;2023-02-28T13:15:21;3;;;2.3;;
76548;SDS011;65391;52.068;4.542;2023-02-28T13:17:44;3;;;2.3;;
76548;SDS011;65391;52.068;4.542;2023-02-28T13:20:15;3;;;2.3;;
76548;SDS011;65391;52.068;4.542;2023-02-28T13:22:37;2.6;;;2.4;;
76548;SDS011;65391;52.068;4.542;2023-02-28T13:24:59;2.6;;;2.4;;
76548;SDS011;65391;52.068;4.542;2023-02-28T13:27:34;2.6;;;2.4;;
76548;SDS011;65391;52.068;4.542;2023-02-28T13:29:50;2.6;;;2.4;;
76548;SDS011;65391;52.068;4.542;2023-02-28T13:32:45;2.5;;;2.1;;
76548;SDS011;65391;52.068;4.542;2023-02-28T13:34:39;2.5;;;2.1;;
76548;SDS011;65391;52.068;4.542;2023-02-28T13:37:36;2.5;;;2.1;;
76548;SDS011;65391;52.068;4.542;2023-02-28T13:39:46;2.5;;;2.1;;
76548;SDS011;65391;52.068;4.542;2023-02-28T13:41:54;7.2;;;2.8;;
76548;SDS011;65391;52.068;4.542;2023-02-28T13:44:20;7.2;;;2.8;;
76548;SDS011;65391;52.068;4.542;2023-02-28T13:47:52;7.2;;;2.8;;
76548;SDS011;65391;52.068;4.542;2023-02-28T13:49:25;7.2;;;2.8;;
76548;SDS011;65391;52.068;4.542;2023-02-28T13:51:38;3.4;;;2.3;;
76548;SDS011;65391;52.068;4.542;2023-02-28T13:54:00;3.4;;;2.3;;
76548;SDS011;65391;52.068;4.542;2023-02-28T13:56:30;3.4;;;2.3;;
76548;SDS011;65391;52.068;4.542;2023-02-28T13:58:53;3.4;;;2.3;;
76548;SDS011;65391;52.068;4.542;2023-02-28T14:01:52;3.2;;;2.5;;
76548;SDS011;65391;52.068;4.542;2023-02-28T14:03:51;3.2;;;2.5;;
76548;SDS011;65391;52.068;4.542;2023-02-28T14:06:08;3.2;;;2.5;;
76548;SDS011;65391;52.068;4.542;2023-02-28T14:08:29;3.2;;;2.5;;
76548;SDS011;65391;52.068;4.542;2023-02-28T14:11:05;3.5;;;2.2;;
76548;SDS011;65391;52.068;4.542;2023-02-28T14:13:51;3.5;;;2.2;;
76548;SDS011;65391;52.068;4.542;2023-02-28T14:15:46;3.5;;;2.2;;
76548;SDS011;65391;52.068;4.542;2023-02-28T14:18:20;3.5;;;2.2;;
76548;SDS011;65391;52.068;4.542;2023-02-28T14:20:34;4.6;;;2.6;;
76548;SDS011;65391;52.068;4.542;2023-02-28T14:23:04;4.6;;;2.6;;
76548;SDS011;65391;52.068;4.542;2023-02-28T14:25:30;4.6;;;2.6;;
76548;SDS011;65391;52.068;4.542;2023-02-28T14:27:50;4.6;;;2.6;;
76548;SDS011;65391;52.068;4.542;2023-02-28T14:31:04;4.6;;;2.6;;
76548;SDS011;65391;52.068;4.542;2023-02-28T14:32:43;2.8;;;2.4;;
76548;SDS011;65391;52.068;4.542;2023-02-28T14:35:13;2.8;;;2.4;;
76548;SDS011;65391;52.068;4.542;2023-02-28T14:37:31;2.8;;;2.4;;
76548;SDS011;65391;52.068;4.542;2023-02-28T14:39:54;2.8;;;2.4;;
76548;SDS011;65391;52.068;4.542;2023-02-28T14:42:36;2.1;;;1.8;;
76548;SDS011;65391;52.068;4.542;2023-02-28T14:44:44;2.1;;;1.8;;
76548;SDS011;65391;52.068;4.542;2023-02-28T14:47:14;2.1;;;1.8;;
76548;SDS011;65391;52.068;4.542;2023-02-28T14:49:35;2.1;;;1.8;;
76548;SDS011;65391;52.068;4.542;2023-02-28T14:52:05;4.2;;;2.1;;
76548;SDS011;65391;52.068;4.542;2023-02-28T14:54:24;4.2;;;2.1;;
76548;SDS011;65391;52.068;4.542;2023-02-28T14:56:49;4.2;;;2.1;;
76548;SDS011;65391;52.068;4.542;2023-02-28T14:59:25;4.2;;;2.1;;
76548;SDS011;65391;52.068;4.542;2023-02-28T15:01:39;4.8;;;2.3;;